Time;durP1;ratioP1;P1;durP2;ratioP2;P2;SDS_P1;SDS_P2;PMS_P1;PMS_P2;Temp;Humidity;BMP_temperature;BMP_pressure;BME280_temperature;BME280_humidity;BME280_pressure;Samples;Min_cycle;Max_cycle;Signal;HPM_P1;HPM_P2
2021/06/09 00:02:05;;;;;;;4.65;3.92;;;;;;;12.97;48.25;102260.00;5066443;28;20048;-70
2021/06/09 00:04:30;;;;;;;4.65;3.83;;;;;;;12.87;48.39;102267.25;5065060;28;20042;-70
2021/06/09 00:06:56;;;;;;;7.80;4.55;;;;;;;12.95;48.48;102265.28;5067931;28;20055;-71
2021/06/09 00:09:21;;;;;;;5.70;3.72;;;;;;;12.89;48.74;102262.81;5065633;28;20090;-70
2021/06/09 00:11:47;;;;;;;5.03;3.83;;;;;;;12.84;48.70;102268.19;5065622;28;20041;-71
2021/06/09 00:14:14;;;;;;;5.03;4.07;;;;;;;12.78;48.75;102260.53;5066841;28;20040;-70
2021/06/09 00:16:41;;;;;;;4.45;3.60;;;;;;;12.75;48.77;102257.09;5063776;28;20039;-70
2021/06/09 00:19:07;;;;;;;4.63;3.95;;;;;;;12.76;48.83;102258.81;5068348;28;20042;-71
2021/06/09 00:21:33;;;;;;;4.68;2.92;;;;;;;12.75;48.69;102263.22;5058028;28;20789;-71
2021/06/09 00:23:59;;;;;;;3.72;3.00;;;;;;;12.69;49.26;102260.75;5067654;28;20055;-71
2021/06/09 00:26:25;;;;;;;4.57;2.70;;;;;;;12.69;48.76;102264.25;5066165;28;20101;-71
2021/06/09 00:28:51;;;;;;;5.75;3.22;;;;;;;12.73;48.91;102262.38;5056302;28;20746;-71
2021/06/09 00:31:17;;;;;;;5.85;4.20;;;;;;;12.67;48.86;102266.03;5067582;28;20106;-71
2021/06/09 00:33:43;;;;;;;8.32;4.15;;;;;;;12.72;48.57;102262.44;5065716;28;20028;-71
2021/06/09 00:36:08;;;;;;;5.05;4.47;;;;;;;12.66;49.44;102258.19;5067297;28;20040;-70
2021/06/09 00:38:34;;;;;;;6.75;4.45;;;;;;;12.62;49.31;102260.00;5055842;28;20029;-71
2021/06/09 00:41:00;;;;;;;6.95;4.53;;;;;;;12.54;49.21;102259.38;5065589;28;20485;-71
2021/06/09 00:43:32;;;;;;;7.88;5.15;;;;;;;12.51;49.45;102262.06;5065171;28;20036;-71
2021/06/09 00:45:59;;;;;;;;;;;;;;;12.46;49.73;102266.56;5066262;28;20055;-71
2021/06/09 00:48:28;;;;;;;6.07;4.40;;;;;;;12.37;49.81;102258.94;5065725;28;19924;-71
2021/06/09 00:50:56;;;;;;;5.93;4.20;;;;;;;12.34;49.90;102259.88;5061622;28;20045;-71
2021/06/09 00:53:28;;;;;;;4.97;3.60;;;;;;;12.37;49.74;102264.19;5063466;28;20037;-70
2021/06/09 00:55:54;;;;;;;;;;;;;;;12.38;49.68;102264.16;5063586;28;20121;-71
2021/06/09 00:58:20;;;;;;;6.25;3.60;;;;;;;12.35;49.97;102258.97;5048856;28;19923;-71
2021/06/09 01:00:46;;;;;;;8.35;4.78;;;;;;;12.34;49.80;102262.50;5065934;28;20041;-70
2021/06/09 01:03:11;;;;;;;6.38;4.28;;;;;;;12.29;50.16;102257.38;5065182;28;20363;-71
2021/06/09 01:05:37;;;;;;;6.28;4.72;;;;;;;12.13;50.50;102253.41;5047618;28;20067;-71
2021/06/09 01:08:04;;;;;;;7.13;4.50;;;;;;;12.00;50.64;102259.84;5065775;28;20078;-71
2021/06/09 01:10:30;;;;;;;7.13;4.35;;;;;;;12.03;50.49;102257.16;5064760;28;20025;-71
2021/06/09 01:12:57;;;;;;;5.63;4.25;;;;;;;12.08;50.26;102250.03;5064927;28;20047;-71
2021/06/09 01:15:23;;;;;;;5.90;5.25;;;;;;;12.31;50.14;102254.69;5063249;28;20036;-71
2021/06/09 01:17:49;;;;;;;7.13;4.78;;;;;;;12.32;50.09;102261.69;5078004;28;20036;-71
2021/06/09 01:20:14;;;;;;;7.10;5.20;;;;;;;12.33;50.03;102254.69;5063719;28;20043;-71
2021/06/09 01:22:40;;;;;;;5.68;3.83;;;;;;;12.36;49.80;102259.88;5065482;28;20051;-71
2021/06/09 01:25:07;;;;;;;8.05;5.35;;;;;;;12.47;49.76;102263.06;5065156;28;20044;-71
2021/06/09 01:27:33;;;;;;;5.97;4.22;;;;;;;12.40;49.60;102256.22;5062744;28;20094;-71
2021/06/09 01:30:00;;;;;;;5.32;4.10;;;;;;;12.36;49.59;102254.63;5065489;28;20429;-71
2021/06/09 01:32:26;;;;;;;4.60;3.38;;;;;;;12.26;49.60;102262.69;5064181;28;20036;-71
2021/06/09 01:34:52;;;;;;;5.43;4.20;;;;;;;12.26;49.83;102260.06;5064595;28;20070;-70
2021/06/09 01:37:19;;;;;;;6.50;4.78;;;;;;;12.21;50.00;102251.47;5065233;28;20041;-71
2021/06/09 01:39:45;;;;;;;5.78;4.15;;;;;;;12.16;50.17;102255.97;5064441;28;20070;-71
2021/06/09 01:42:11;;;;;;;5.38;4.40;;;;;;;12.23;49.96;102254.06;5064239;28;20075;-71
2021/06/09 01:44:38;;;;;;;6.03;4.20;;;;;;;12.15;49.86;102251.59;5065908;28;20078;-71
2021/06/09 01:47:03;;;;;;;7.15;4.88;;;;;;;12.16;50.12;102255.13;5064645;28;20131;-71
2021/06/09 01:49:30;;;;;;;5.97;4.15;;;;;;;12.15;50.12;102246.38;5064907;28;20113;-71
2021/06/09 01:51:55;;;;;;;7.32;4.75;;;;;;;12.10;50.05;102245.63;5064308;28;20028;-71
2021/06/09 01:54:22;;;;;;;6.53;4.47;;;;;;;12.08;50.27;102244.81;5064954;28;20135;-71
2021/06/09 01:56:48;;;;;;;7.97;4.78;;;;;;;12.09;49.78;102236.06;5061719;28;20047;-71
2021/06/09 01:59:16;;;;;;;5.32;4.28;;;;;;;12.08;50.04;102247.44;5065116;28;20032;-70
2021/06/09 02:01:43;;;;;;;8.93;5.68;;;;;;;12.07;49.80;102243.94;5060705;28;20024;-70
2021/06/09 02:04:12;;;;;;;5.68;5.05;;;;;;;12.00;49.99;102242.38;5061495;28;20131;-70
2021/06/09 02:06:39;;;;;;;9.60;4.85;;;;;;;12.01;49.64;102244.09;5062745;28;20097;-70
2021/06/09 02:09:05;;;;;;;9.82;5.32;;;;;;;11.85;49.87;102248.00;5048941;28;20078;-70
2021/06/09 02:11:32;;;;;;;8.48;6.05;;;;;;;11.76;50.34;102243.78;5062390;28;20040;-71
2021/06/09 02:13:58;;;;;;;7.20;4.68;;;;;;;11.70;50.70;102240.44;5065256;28;20047;-70
2021/06/09 02:16:23;;;;;;;8.05;5.60;;;;;;;11.91;50.33;102245.22;5065541;28;20032;-70
2021/06/09 02:18:49;;;;;;;8.57;4.85;;;;;;;11.93;50.00;102240.78;5042042;28;20091;-70
2021/06/09 02:21:15;;;;;;;8.93;5.50;;;;;;;12.00;49.80;102236.25;5063642;28;20032;-70
2021/06/09 02:23:45;;;;;;;8.75;5.60;;;;;;;11.88;49.87;102233.03;5062381;28;20101;-72
2021/06/09 02:26:12;;;;;;;6.75;4.70;;;;;;;11.92;49.70;102230.38;5056048;28;20490;-71
2021/06/09 02:28:37;;;;;;;10.13;6.10;;;;;;;11.86;49.66;102234.84;5062807;28;20743;-70
2021/06/09 02:31:03;;;;;;;7.30;5.10;;;;;;;11.92;49.49;102232.97;5061124;28;20096;-71
2021/06/09 02:33:29;;;;;;;6.57;5.07;;;;;;;11.98;49.67;102230.22;5061259;28;20029;-70
2021/06/09 02:35:56;;;;;;;10.23;6.18;;;;;;;11.98;49.68;102227.59;5065612;28;20032;-71
2021/06/09 02:38:22;;;;;;;8.73;5.38;;;;;;;11.91;49.95;102226.91;5060216;28;20040;-70
2021/06/09 02:40:50;;;;;;;9.95;5.90;;;;;;;11.92;50.00;102225.13;5062769;28;20111;-70
2021/06/09 02:43:16;;;;;;;11.45;6.63;;;;;;;11.76;50.01;102224.59;5062926;28;20035;-70
2021/06/09 02:45:51;;;;;;;7.90;5.20;;;;;;;11.61;50.19;102218.81;5064996;28;20029;-70
2021/06/09 02:48:21;;;;;;;8.65;5.57;;;;;;;11.50;50.36;102226.03;5065373;28;20513;-70
2021/06/09 02:50:47;;;;;;;10.40;6.57;;;;;;;11.47;50.87;102228.75;5061235;28;20055;-70
2021/06/09 02:53:30;;;;;;;11.93;6.50;;;;;;;11.64;50.49;102220.47;5062305;28;20485;-71
2021/06/09 02:56:16;;;;;;;10.82;6.45;;;;;;;11.65;50.39;102222.22;5060926;28;20052;-71
2021/06/09 02:58:55;;;;;;;8.90;6.05;;;;;;;11.58;50.57;102224.13;5064379;28;20464;-71
2021/06/09 03:01:44;;;;;;;8.20;5.93;;;;;;;11.54;50.83;102211.13;5062040;28;20052;-70
2021/06/09 03:04:45;;;;;;;9.07;5.75;;;;;;;11.63;50.89;102210.91;5061118;28;20033;-72
2021/06/09 03:07:21;;;;;;;9.27;6.63;;;;;;;11.77;50.29;102219.34;5051190;28;20059;-72
2021/06/09 03:09:55;;;;;;;8.35;5.53;;;;;;;11.80;50.12;102223.66;5061405;28;20036;-72
2021/06/09 03:12:36;;;;;;;9.00;6.28;;;;;;;11.69;50.24;102221.25;5060927;28;20028;-72
2021/06/09 03:15:10;;;;;;;8.15;5.53;;;;;;;11.73;50.02;102222.91;5076931;28;20627;-72
2021/06/09 03:18:08;;;;;;;8.27;5.82;;;;;;;11.67;49.67;102210.81;5062466;28;20039;-72
2021/06/09 03:20:50;;;;;;;11.48;5.63;;;;;;;11.54;50.54;102213.75;5055462;28;20044;-72
2021/06/09 03:23:28;;;;;;;13.23;7.10;;;;;;;11.55;50.88;102216.31;5063986;28;20039;-72
2021/06/09 03:26:01;;;;;;;8.77;6.07;;;;;;;11.58;51.06;102210.19;5064806;28;20086;-72
2021/06/09 03:28:38;;;;;;;8.48;4.85;;;;;;;11.65;50.62;102209.13;5066888;28;20032;-71
2021/06/09 03:31:06;;;;;;;8.35;5.47;;;;;;;11.82;50.21;102211.38;5065909;28;20060;-72
2021/06/09 03:33:43;;;;;;;10.43;5.97;;;;;;;11.81;50.02;102207.88;5062812;28;20064;-72
2021/06/09 03:36:13;;;;;;;9.20;6.60;;;;;;;11.70;50.01;102214.25;5066251;28;20063;-72
2021/06/09 03:38:47;;;;;;;11.20;6.53;;;;;;;11.56;50.75;102214.59;5066303;28;20040;-72
2021/06/09 03:41:15;;;;;;;7.72;5.65;;;;;;;11.68;50.82;102209.03;5063427;28;20039;-72
2021/06/09 03:43:45;;;;;;;9.93;5.70;;;;;;;11.82;50.69;102208.75;5063805;28;20485;-72
2021/06/09 03:46:13;;;;;;;9.65;6.65;;;;;;;11.81;50.56;102201.81;5044293;28;20477;-72
2021/06/09 03:48:41;;;;;;;9.30;6.22;;;;;;;11.71;50.74;102201.13;5081614;28;20032;-72
2021/06/09 03:51:10;;;;;;;12.07;6.50;;;;;;;11.67;50.87;102202.09;5067183;28;20036;-72
2021/06/09 03:53:39;;;;;;;9.32;6.75;;;;;;;11.68;51.27;102204.66;5065232;28;20029;-72
2021/06/09 03:56:06;;;;;;;8.10;5.72;;;;;;;11.73;51.14;102198.47;5065632;28;20071;-72
2021/06/09 03:58:34;;;;;;;13.63;7.05;;;;;;;11.77;50.83;102203.63;5067050;28;20055;-72
2021/06/09 04:01:01;;;;;;;11.13;6.50;;;;;;;11.76;50.89;102203.66;5064330;28;20040;-72
2021/06/09 04:03:28;;;;;;;10.43;6.65;;;;;;;11.79;51.07;102199.22;5063611;28;20067;-72
2021/06/09 04:05:55;;;;;;;10.05;6.75;;;;;;;11.83;50.86;102202.63;5064433;28;20081;-72
2021/06/09 04:08:21;;;;;;;9.15;6.18;;;;;;;11.85;51.03;102201.69;5066352;28;20459;-71
2021/06/09 04:10:47;;;;;;;7.78;5.47;;;;;;;11.92;50.96;102204.16;5065765;28;20175;-71
2021/06/09 04:13:17;;;;;;;9.35;5.00;;;;;;;12.09;50.68;102207.22;5065416;28;20450;-71
2021/06/09 04:15:45;;;;;;;9.43;4.70;;;;;;;12.39;49.71;102204.72;5063692;28;20093;-71
2021/06/09 04:18:10;;;;;;;7.63;4.93;;;;;;;12.59;49.67;102215.53;5065374;28;20055;-71
2021/06/09 04:20:39;;;;;;;7.25;5.20;;;;;;;12.77;49.44;102208.09;5062845;28;20056;-71
2021/06/09 04:23:06;;;;;;;8.18;5.70;;;;;;;12.97;48.99;102205.75;5081880;28;20032;-71
2021/06/09 04:25:32;;;;;;;8.88;5.97;;;;;;;13.05;48.63;102209.00;5064192;28;20032;-71
2021/06/09 04:27:58;;;;;;;9.25;5.60;;;;;;;13.22;48.06;102210.28;5065017;28;20056;-71
2021/06/09 04:30:23;;;;;;;10.15;5.72;;;;;;;13.29;48.43;102207.44;5081098;28;20032;-71
2021/06/09 04:33:01;;;;;;;9.20;5.70;;;;;;;13.56;47.93;102196.94;5064601;28;20599;-71
2021/06/09 04:35:35;;;;;;;8.18;5.57;;;;;;;13.85;47.12;102205.69;5063017;28;20040;-71
2021/06/09 04:38:00;;;;;;;7.60;5.00;;;;;;;14.07;47.06;102197.97;5064599;28;20033;-71
2021/06/09 04:40:27;;;;;;;10.13;5.72;;;;;;;14.28;46.53;102196.38;5067020;28;20105;-71
2021/06/09 04:42:55;;;;;;;10.52;6.32;;;;;;;14.41;45.85;102191.56;5065481;28;20051;-71
2021/06/09 04:45:23;;;;;;;6.72;5.45;;;;;;;14.54;46.17;102203.38;5060815;28;20536;-71
2021/06/09 04:47:49;;;;;;;6.68;5.22;;;;;;;14.68;45.92;102203.75;5064524;28;20025;-71
2021/06/09 04:50:22;;;;;;;7.95;5.53;;;;;;;14.83;45.70;102198.81;5066695;28;20028;-71
2021/06/09 04:52:48;;;;;;;6.75;4.82;;;;;;;15.04;45.29;102195.41;5080712;28;20032;-71
2021/06/09 04:55:15;;;;;;;8.73;6.45;;;;;;;15.06;45.41;102192.69;5063764;28;20036;-71
2021/06/09 04:57:40;;;;;;;10.63;6.75;;;;;;;15.16;45.13;102189.66;5065282;28;20033;-71
2021/06/09 05:00:09;;;;;;;11.90;6.20;;;;;;;15.47;45.28;102187.63;5065619;28;20536;-71
2021/06/09 05:02:35;;;;;;;8.30;5.65;;;;;;;16.00;44.28;102185.47;5062412;28;20659;-71
2021/06/09 05:05:01;;;;;;;8.93;5.53;;;;;;;17.59;41.34;102183.59;5065177;28;20607;-71
2021/06/09 05:07:26;;;;;;;6.93;6.00;;;;;;;20.01;35.80;102180.22;5064960;28;20562;-71
2021/06/09 05:09:55;;;;;;;7.00;5.47;;;;;;;21.91;32.34;102177.09;5067086;28;20029;-71
2021/06/09 05:12:25;;;;;;;5.90;4.95;;;;;;;23.64;29.17;102177.22;5063386;28;20250;-71
2021/06/09 05:15:01;;;;;;;5.88;4.00;;;;;;;24.61;28.06;102175.94;5064514;28;20045;-71
2021/06/09 05:17:30;;;;;;;6.45;3.63;;;;;;;25.56;26.79;102179.88;5061968;28;20033;-71
2021/06/09 05:20:00;;;;;;;6.72;3.80;;;;;;;26.03;25.55;102175.81;5065700;28;20045;-71
2021/06/09 05:22:32;;;;;;;3.65;3.35;;;;;;;26.56;24.54;102169.47;5065238;28;20141;-71
2021/06/09 05:25:01;;;;;;;;;;;;;;;26.92;24.72;102175.25;5062279;28;20048;-71
2021/06/09 05:27:28;;;;;;;3.33;2.80;;;;;;;27.45;24.26;102171.34;5063527;28;19923;-71
2021/06/09 05:29:55;;;;;;;4.72;2.65;;;;;;;27.17;23.98;102173.03;5065713;28;20039;-71
2021/06/09 05:32:21;;;;;;;4.20;2.80;;;;;;;26.94;25.53;102175.94;5047529;28;20029;-71
2021/06/09 05:34:47;;;;;;;5.25;3.05;;;;;;;26.96;24.38;102179.34;5064643;28;20040;-71
2021/06/09 05:37:14;;;;;;;3.60;2.90;;;;;;;26.64;25.62;102180.38;5046950;28;20113;-71
2021/06/09 05:39:41;;;;;;;2.55;2.33;;;;;;;27.00;24.86;102186.09;5065006;28;20028;-72
2021/06/09 05:42:12;;;;;;;2.80;2.50;;;;;;;27.46;24.89;102181.94;5064337;28;20041;-71
2021/06/09 05:44:47;;;;;;;4.95;2.83;;;;;;;27.50;24.38;102180.66;5045340;28;20106;-71
2021/06/09 05:47:13;;;;;;;4.35;3.10;;;;;;;27.84;24.16;102174.84;5080247;28;20049;-71
2021/06/09 05:49:39;;;;;;;3.38;2.25;;;;;;;28.05;23.57;102184.56;5080673;28;20714;-70
2021/06/09 05:52:06;;;;;;;2.60;2.28;;;;;;;28.98;22.54;102176.53;5064135;28;20040;-71
2021/06/09 05:54:37;;;;;;;2.45;2.25;;;;;;;28.70;23.03;102174.72;5080012;28;20040;-71
2021/06/09 05:57:04;;;;;;;4.75;2.25;;;;;;;28.30;23.28;102173.19;5064017;28;20067;-71
2021/06/09 05:59:30;;;;;;;2.63;1.92;;;;;;;28.91;23.62;102178.97;5061541;28;20064;-71
2021/06/09 06:01:55;;;;;;;2.42;1.95;;;;;;;29.34;22.30;102180.09;5065956;28;20063;-71
2021/06/09 06:04:22;;;;;;;2.38;1.73;;;;;;;29.29;22.01;102185.09;5065044;28;20052;-71
2021/06/09 06:06:49;;;;;;;4.38;1.60;;;;;;;29.08;22.58;102178.16;5080360;28;20078;-71
2021/06/09 06:09:16;;;;;;;2.08;1.88;;;;;;;29.46;22.11;102176.19;5065442;28;20025;-71
2021/06/09 06:11:42;;;;;;;1.80;1.55;;;;;;;29.73;21.01;102177.91;5058210;28;20081;-71
2021/06/09 06:14:10;;;;;;;1.95;1.25;;;;;;;29.66;21.41;102179.56;5060915;28;20037;-71
2021/06/09 06:16:37;;;;;;;1.90;1.35;;;;;;;29.58;20.09;102174.91;5064353;28;20115;-71
2021/06/09 06:19:05;;;;;;;2.22;1.98;;;;;;;29.54;21.21;102173.53;5063294;28;20037;-71
2021/06/09 06:21:30;;;;;;;3.30;2.08;;;;;;;29.32;20.64;102180.25;5063533;28;20024;-70
2021/06/09 06:23:56;;;;;;;1.67;1.50;;;;;;;30.38;20.00;102182.03;5064243;28;20047;-72
2021/06/09 06:26:24;;;;;;;1.33;0.98;;;;;;;31.47;18.50;102181.13;5057340;28;20158;-71
2021/06/09 06:28:52;;;;;;;2.53;1.17;;;;;;;31.53;17.83;102175.03;5064305;28;20032;-71
2021/06/09 06:31:27;;;;;;;2.13;1.10;;;;;;;31.52;16.53;102176.06;5040542;28;20726;-71
2021/06/09 06:33:55;;;;;;;1.55;1.00;;;;;;;31.30;17.17;102174.03;5064287;28;20047;-71
2021/06/09 06:36:23;;;;;;;1.13;0.82;;;;;;;31.80;16.69;102164.88;5064622;28;20044;-71
2021/06/09 06:38:49;;;;;;;1.88;1.10;;;;;;;32.82;16.06;102163.16;5063067;28;20482;-73
2021/06/09 06:41:16;;;;;;;3.13;1.20;;;;;;;32.65;17.35;102172.38;5080306;28;20036;-71
2021/06/09 06:43:41;;;;;;;1.50;1.38;;;;;;;33.23;17.08;102164.72;5062397;28;20116;-72
2021/06/09 06:46:12;;;;;;;4.22;1.95;;;;;;;34.05;15.46;102170.22;5064149;28;20123;-71
2021/06/09 06:48:38;;;;;;;1.88;1.48;;;;;;;34.22;15.86;102170.91;5047830;28;20032;-71
2021/06/09 06:51:05;;;;;;;1.60;1.25;;;;;;;34.01;15.53;102168.06;5041944;28;20048;-71
2021/06/09 06:53:31;;;;;;;2.63;2.05;;;;;;;33.54;15.93;102166.53;5064878;28;20033;-73
2021/06/09 06:56:01;;;;;;;2.80;2.03;;;;;;;34.21;15.09;102168.38;5075099;28;20039;-72
2021/06/09 06:58:31;;;;;;;3.85;1.15;;;;;;;34.87;13.86;102166.47;5078063;28;20091;-70
2021/06/09 07:00:59;;;;;;;3.13;2.83;;;;;;;34.37;14.75;102170.03;5076854;28;20582;-72
2021/06/09 07:03:26;;;;;;;2.58;2.38;;;;;;;33.33;15.56;102169.94;5086219;28;20033;-72
2021/06/09 07:05:53;;;;;;;5.30;2.28;;;;;;;33.41;15.99;102175.28;5074942;28;20043;-73
2021/06/09 07:08:19;;;;;;;2.40;2.17;;;;;;;33.12;15.55;102168.69;5092202;28;20029;-71
2021/06/09 07:10:45;;;;;;;3.22;2.17;;;;;;;32.49;16.79;102158.94;5078827;28;20040;-72
2021/06/09 07:13:11;;;;;;;6.47;2.63;;;;;;;32.55;16.99;102160.94;5073486;28;20040;-72
2021/06/09 07:15:39;;;;;;;4.55;3.03;;;;;;;32.80;17.15;102159.75;5059361;28;20060;-71
2021/06/09 07:18:06;;;;;;;2.38;1.95;;;;;;;34.21;15.70;102162.94;5072310;28;20056;-71
2021/06/09 07:20:32;;;;;;;1.48;1.23;;;;;;;35.01;14.37;102155.75;5063165;28;20098;-71
2021/06/09 07:22:58;;;;;;;1.45;1.35;;;;;;;35.19;13.87;102166.16;5070001;28;20037;-71
2021/06/09 07:25:31;;;;;;;2.22;0.77;;;;;;;35.99;12.49;102161.34;5066173;28;20032;-72
2021/06/09 07:28:01;;;;;;;1.75;1.10;;;;;;;36.62;11.55;102162.00;5068118;28;20063;-72
2021/06/09 07:30:29;;;;;;;1.10;0.80;;;;;;;37.11;11.33;102160.88;5066860;28;20083;-72
2021/06/09 07:32:56;;;;;;;1.42;0.68;;;;;;;36.43;11.67;102163.63;5064598;28;20373;-72
2021/06/09 07:35:22;;;;;;;1.98;1.13;;;;;;;35.53;13.22;102162.69;5060362;28;20028;-71
2021/06/09 07:37:50;;;;;;;1.67;0.93;;;;;;;35.37;13.37;102165.69;5062398;28;20523;-71
2021/06/09 07:40:18;;;;;;;2.28;0.82;;;;;;;36.82;12.75;102167.50;5066577;28;20028;-71
2021/06/09 07:42:48;;;;;;;2.50;0.90;;;;;;;36.22;12.22;102161.00;5067243;28;20413;-71
2021/06/09 07:45:17;;;;;;;2.10;0.65;;;;;;;36.50;12.66;102164.50;5070045;28;20044;-71
2021/06/09 07:47:46;;;;;;;2.35;0.88;;;;;;;37.09;12.39;102159.41;5086327;28;20067;-71
2021/06/09 07:50:13;;;;;;;2.45;1.00;;;;;;;36.58;12.49;102170.78;5078829;28;20048;-73
2021/06/09 07:52:43;;;;;;;2.58;0.60;;;;;;;35.99;13.06;102170.31;5071825;28;20035;-73
2021/06/09 07:55:10;;;;;;;3.53;1.25;;;;;;;36.87;12.16;102162.28;5074744;28;20040;-72
2021/06/09 07:57:37;;;;;;;1.35;0.70;;;;;;;36.68;12.18;102165.84;5072144;28;20037;-71
2021/06/09 08:00:11;;;;;;;3.15;0.73;;;;;;;36.13;13.54;102163.91;5073649;28;20422;-72
2021/06/09 08:02:44;;;;;;;4.63;0.98;;;;;;;35.33;13.48;102167.09;5071894;28;20044;-73
2021/06/09 08:05:14;;;;;;;2.55;0.75;;;;;;;34.98;13.32;102170.56;5075346;28;20097;-72
2021/06/09 08:07:43;;;;;;;0.83;0.57;;;;;;;34.72;13.82;102170.25;5073540;28;20035;-72
2021/06/09 08:10:11;;;;;;;1.48;0.90;;;;;;;35.58;13.25;102171.09;5090649;28;20088;-72
2021/06/09 08:12:38;;;;;;;0.93;0.45;;;;;;;34.26;14.27;102171.34;5070670;28;20094;-72
2021/06/09 08:15:06;;;;;;;1.95;0.80;;;;;;;34.05;14.62;102170.22;5065245;28;20040;-72
2021/06/09 08:17:32;;;;;;;1.17;0.80;;;;;;;34.46;13.90;102171.59;5057786;28;20083;-72
2021/06/09 08:19:57;;;;;;;1.30;1.20;;;;;;;35.37;13.87;102174.66;5074928;28;20028;-72
2021/06/09 08:22:23;;;;;;;3.13;1.85;;;;;;;33.73;14.95;102170.63;5070722;28;20028;-73
2021/06/09 08:24:50;;;;;;;4.40;1.10;;;;;;;33.71;15.17;102164.53;5084200;28;20044;-70
2021/06/09 08:27:16;;;;;;;2.92;1.23;;;;;;;34.26;14.99;102160.50;5065058;28;20063;-72
2021/06/09 08:29:42;;;;;;;3.92;1.63;;;;;;;33.79;15.12;102161.72;5061955;28;20024;-71
2021/06/09 08:32:08;;;;;;;4.28;1.48;;;;;;;33.97;15.42;102170.34;5048535;28;20036;-72
2021/06/09 08:34:33;;;;;;;1.95;1.63;;;;;;;33.45;15.61;102168.47;5061681;28;20035;-72
2021/06/09 08:36:59;;;;;;;3.83;1.85;;;;;;;33.16;16.34;102163.78;5064367;28;20040;-72
2021/06/09 08:39:26;;;;;;;1.90;1.17;;;;;;;33.36;15.79;102169.56;5048217;28;20154;-72
2021/06/09 08:41:55;;;;;;;5.82;1.60;;;;;;;33.56;16.47;102170.72;5065523;28;20044;-72
2021/06/09 08:44:24;;;;;;;2.70;1.58;;;;;;;34.51;13.69;102168.31;5062744;28;20575;-71
2021/06/09 08:46:53;;;;;;;4.82;1.23;;;;;;;35.50;13.81;102163.09;5058343;28;20688;-72
2021/06/09 08:49:21;;;;;;;1.58;1.48;;;;;;;34.60;14.05;102153.66;5062475;28;20040;-71
2021/06/09 08:51:47;;;;;;;1.40;1.15;;;;;;;34.78;14.63;102154.03;5067697;28;20104;-71
2021/06/09 08:54:13;;;;;;;3.15;1.27;;;;;;;34.62;14.06;102162.41;5043486;28;20128;-72
2021/06/09 08:56:39;;;;;;;1.73;1.17;;;;;;;34.48;14.52;102159.53;5063465;28;20115;-72
2021/06/09 08:59:06;;;;;;;1.60;1.45;;;;;;;34.12;14.38;102161.34;5062831;28;20527;-71
2021/06/09 09:01:33;;;;;;;2.60;1.35;;;;;;;33.52;15.21;102158.56;5062825;28;20036;-72
2021/06/09 09:04:00;;;;;;;1.92;1.38;;;;;;;33.49;14.84;102158.94;5062989;28;20806;-73
2021/06/09 09:06:27;;;;;;;1.60;1.17;;;;;;;33.18;15.29;102154.44;5063530;28;20035;-72
2021/06/09 09:08:56;;;;;;;1.75;1.40;;;;;;;33.22;15.80;102154.94;5065771;28;20692;-72
2021/06/09 09:11:22;;;;;;;2.10;1.23;;;;;;;33.71;15.70;102161.81;5063803;28;20047;-72
2021/06/09 09:13:48;;;;;;;1.95;1.05;;;;;;;33.44;16.25;102155.94;5064831;28;20332;-71
2021/06/09 09:16:13;;;;;;;2.75;1.27;;;;;;;32.88;15.95;102156.22;5062688;28;20036;-71
2021/06/09 09:18:45;;;;;;;2.25;1.35;;;;;;;32.35;17.04;102155.09;5061973;28;20701;-72
2021/06/09 09:21:12;;;;;;;3.08;1.40;;;;;;;32.80;16.99;102165.19;5048029;28;20044;-71
2021/06/09 09:23:46;;;;;;;1.75;1.42;;;;;;;32.62;16.24;102161.91;5064396;28;20632;-71
2021/06/09 09:26:33;;;;;;;2.00;1.55;;;;;;;32.34;16.60;102162.38;5061333;28;20036;-71
2021/06/09 09:29:11;;;;;;;4.72;1.00;;;;;;;32.91;16.07;102163.13;5055946;28;20500;-71
2021/06/09 09:31:52;;;;;;;3.40;1.27;;;;;;;31.62;17.34;102165.06;5059720;28;20024;-71
2021/06/09 09:34:51;;;;;;;3.08;1.35;;;;;;;31.16;17.68;102170.16;5061103;28;20139;-71
2021/06/09 09:37:18;;;;;;;2.42;1.65;;;;;;;30.73;18.60;102174.75;5062729;28;20119;-71
2021/06/09 09:39:50;;;;;;;3.85;2.70;;;;;;;30.40;19.50;102171.91;5064291;28;20033;-71
2021/06/09 09:42:31;;;;;;;4.03;2.47;;;;;;;30.71;17.80;102166.84;5057587;28;20052;-71
2021/06/09 09:45:18;;;;;;;2.42;1.30;;;;;;;30.73;18.45;102164.78;5063102;28;20040;-70
2021/06/09 09:48:13;;;;;;;1.98;1.77;;;;;;;29.27;20.62;102176.34;5061084;28;20044;-70
2021/06/09 09:50:44;;;;;;;3.38;2.15;;;;;;;29.36;20.42;102175.41;5056178;28;20648;-72
2021/06/09 09:53:20;;;;;;;3.75;1.73;;;;;;;29.58;19.78;102177.59;5057286;28;20118;-71
2021/06/09 09:56:06;;;;;;;7.57;2.28;;;;;;;29.16;19.91;102175.56;5061064;28;20037;-72
2021/06/09 09:58:36;;;;;;;3.95;2.20;;;;;;;28.88;19.59;102171.19;5059304;28;20032;-72
2021/06/09 10:01:08;;;;;;;2.92;2.08;;;;;;;28.16;21.24;102164.75;5061705;28;20051;-72
2021/06/09 10:03:37;;;;;;;4.60;2.20;;;;;;;28.40;21.33;102166.94;5051004;28;20548;-72
2021/06/09 10:06:20;;;;;;;3.65;2.63;;;;;;;28.21;21.76;102162.47;5075503;28;20565;-72
2021/06/09 10:08:46;;;;;;;2.65;2.30;;;;;;;28.18;21.56;102160.91;5055623;28;20400;-72
2021/06/09 10:11:15;;;;;;;2.60;2.38;;;;;;;28.54;20.74;102175.31;5060638;28;20039;-72
2021/06/09 10:13:42;;;;;;;6.50;2.95;;;;;;;29.00;19.79;102169.16;5059104;28;20097;-72
2021/06/09 10:16:22;;;;;;;3.58;2.67;;;;;;;28.74;22.15;102165.34;5059718;28;20119;-72
2021/06/09 10:19:09;;;;;;;6.50;4.20;;;;;;;29.31;22.03;102166.94;5057744;28;20037;-72
2021/06/09 10:21:44;;;;;;;4.20;2.90;;;;;;;29.82;21.91;102164.47;5039622;28;20450;-72
2021/06/09 10:24:10;;;;;;;5.43;2.60;;;;;;;29.18;21.91;102166.50;5060839;28;20042;-72
2021/06/09 10:26:38;;;;;;;8.63;3.92;;;;;;;28.67;21.69;102166.09;5060489;28;20405;-72
2021/06/09 10:29:08;;;;;;;4.63;4.22;;;;;;;28.71;21.76;102165.66;5059043;28;20482;-72
2021/06/09 10:31:36;;;;;;;4.32;3.38;;;;;;;28.75;22.12;102167.03;5045788;28;20043;-72
2021/06/09 10:34:03;;;;;;;4.47;3.47;;;;;;;28.49;22.18;102156.13;5057632;28;20043;-72
2021/06/09 10:36:32;;;;;;;4.63;2.97;;;;;;;28.78;22.10;102157.81;5046960;28;20025;-72
2021/06/09 10:38:57;;;;;;;3.53;3.22;;;;;;;28.19;23.54;102154.56;5063555;28;20111;-72
2021/06/09 10:41:25;;;;;;;6.38;3.97;;;;;;;28.77;22.86;102164.22;5064754;28;20561;-72
2021/06/09 10:43:53;;;;;;;6.30;4.00;;;;;;;28.68;22.83;102155.19;5061664;28;20024;-72
2021/06/09 10:46:25;;;;;;;5.25;4.32;;;;;;;28.39;22.62;102152.66;5062655;28;20108;-72
2021/06/09 10:48:55;;;;;;;3.33;2.70;;;;;;;28.61;23.48;102148.69;5063524;28;20078;-72
2021/06/09 10:51:21;;;;;;;7.22;2.30;;;;;;;28.40;23.71;102150.78;5064226;28;20477;-72
2021/06/09 10:53:48;;;;;;;3.30;2.92;;;;;;;27.48;24.01;102161.16;5059876;28;20044;-72
2021/06/09 10:56:14;;;;;;;3.70;3.15;;;;;;;26.47;25.03;102149.69;5063774;28;20040;-72
2021/06/09 10:58:40;;;;;;;5.30;3.53;;;;;;;26.50;24.88;102156.59;5063050;28;20051;-72
2021/06/09 11:01:07;;;;;;;6.72;3.72;;;;;;;26.26;25.12;102162.28;5063663;28;20094;-72
2021/06/09 11:03:37;;;;;;;2.85;2.65;;;;;;;26.27;25.66;102158.66;5062971;28;20073;-72
2021/06/09 11:06:04;;;;;;;5.40;3.10;;;;;;;26.90;24.33;102155.75;5063797;28;20668;-72
2021/06/09 11:08:30;;;;;;;5.25;3.88;;;;;;;27.09;24.47;102155.78;5063056;28;20140;-72
2021/06/09 11:10:57;;;;;;;2.08;1.88;;;;;;;27.20;24.26;102159.34;5047254;28;20044;-72
2021/06/09 11:13:26;;;;;;;3.03;1.38;;;;;;;27.13;24.58;102152.84;5047650;28;20047;-72
2021/06/09 11:16:03;;;;;;;6.18;3.00;;;;;;;26.88;24.37;102157.72;5065131;28;20041;-72
2021/06/09 11:18:34;;;;;;;3.38;3.08;;;;;;;27.39;23.54;102148.59;5075718;28;20109;-72
2021/06/09 11:21:02;;;;;;;3.80;2.67;;;;;;;27.51;23.44;102147.44;5061581;28;20458;-72
2021/06/09 11:23:33;;;;;;;2.25;1.42;;;;;;;27.41;23.79;102149.31;5062825;28;20067;-72
2021/06/09 11:26:04;;;;;;;4.15;1.58;;;;;;;27.66;23.48;102152.41;5065007;28;20040;-72
2021/06/09 11:28:32;;;;;;;3.35;2.28;;;;;;;27.60;23.71;102158.31;5061035;28;20020;-72
2021/06/09 11:31:02;;;;;;;2.78;1.75;;;;;;;26.86;23.77;102151.66;5047439;28;20055;-72
2021/06/09 11:33:42;;;;;;;4.15;1.50;;;;;;;26.82;24.16;102153.75;5041245;28;20093;-72